Terminal Aerodrome Forecast
Issued by NWS

Home | Current Version | Previous Version | Text Only | Print | Product List | Glossary On
Versions: 1 2 3 4 5 6 7 8 9 10 11 12 13 14
000
FTUS45 KTFX 252339
TAFLWT
TAF
KLWT 252339Z 2600/2624 32010KT P6SM -SHRA VCTS BKN050CB
      TEMPO 2600/2602 VRB12G26KT 5SM -TSRA
     FM260600 VRB05KT P6SM SCT020 BKN035
     FM261700 30007KT P6SM VCTS SCT030 BKN050CB=

USA.gov is the U.S. government's official web portal to all federal, state and local government web resources and services.